sensor_id;sensor_type;location;lat;lon;timestamp;temperature;humidity
74224;SHT31;62585;49.706;18.216;2022-07-29T10:04:05;22.19;61.97
74224;SHT31;62585;49.706;18.216;2022-07-29T10:06:30;22.19;61.96
74224;SHT31;62585;49.706;18.216;2022-07-29T10:09:16;22.13;62.00
74224;SHT31;62585;49.706;18.216;2022-07-29T10:11:42;22.23;61.83
74224;SHT31;62585;49.706;18.216;2022-07-29T10:14:27;22.21;61.75
74224;SHT31;62585;49.706;18.216;2022-07-29T10:16:53;22.21;61.70
74224;SHT31;62585;49.706;18.216;2022-07-29T10:19:19;22.21;61.58
74224;SHT31;62585;49.706;18.216;2022-07-29T10:21:45;22.21;61.56
74224;SHT31;62585;49.706;18.216;2022-07-29T10:24:10;22.19;61.58
74224;SHT31;62585;49.706;18.216;2022-07-29T10:26:36;22.18;61.62
74224;SHT31;62585;49.706;18.216;2022-07-29T10:29:04;22.13;61.61
74224;SHT31;62585;49.706;18.216;2022-07-29T10:31:48;22.13;61.53
74224;SHT31;62585;49.706;18.216;2022-07-29T10:37:27;22.08;61.45
74224;SHT31;62585;49.706;18.216;2022-07-29T10:40:22;22.11;61.53
74224;SHT31;62585;49.706;18.216;2022-07-29T10:43:16;22.06;61.58
74224;SHT31;62585;49.706;18.216;2022-07-29T10:45:44;22.12;61.52
74224;SHT31;62585;49.706;18.216;2022-07-29T10:48:10;22.13;61.48
74224;SHT31;62585;49.706;18.216;2022-07-29T10:51:00;22.06;61.55
74224;SHT31;62585;49.706;18.216;2022-07-29T10:53:50;22.06;61.72
74224;SHT31;62585;49.706;18.216;2022-07-29T10:56:30;22.08;61.67
74224;SHT31;62585;49.706;18.216;2022-07-29T11:01:45;22.12;61.51
74224;SHT31;62585;49.706;18.216;2022-07-29T11:04:11;22.12;61.63
74224;SHT31;62585;49.706;18.216;2022-07-29T11:09:30;22.13;61.64
74224;SHT31;62585;49.706;18.216;2022-07-29T11:11:57;22.18;61.88
74224;SHT31;62585;49.706;18.216;2022-07-29T11:17:20;22.23;62.12
74224;SHT31;62585;49.706;18.216;2022-07-29T11:19:45;22.26;62.01
74224;SHT31;62585;49.706;18.216;2022-07-29T11:22:32;22.23;61.95
74224;SHT31;62585;49.706;18.216;2022-07-29T11:25:14;22.22;61.88
74224;SHT31;62585;49.706;18.216;2022-07-29T11:27:39;22.28;61.83
74224;SHT31;62585;49.706;18.216;2022-07-29T11:30:06;22.26;61.82
74224;SHT31;62585;49.706;18.216;2022-07-29T11:32:37;22.26;61.71
74224;SHT31;62585;49.706;18.216;2022-07-29T11:35:22;22.23;61.54
74224;SHT31;62585;49.706;18.216;2022-07-29T11:38:26;22.21;61.61
74224;SHT31;62585;49.706;18.216;2022-07-29T11:44:00;22.25;61.66
74224;SHT31;62585;49.706;18.216;2022-07-29T11:46:46;22.26;61.95
74224;SHT31;62585;49.706;18.216;2022-07-29T11:51:12;22.38;61.66
74224;SHT31;62585;49.706;18.216;2022-07-29T11:53:39;22.43;61.69
74224;SHT31;62585;49.706;18.216;2022-07-29T11:56:08;22.40;61.82
74224;SHT31;62585;49.706;18.216;2022-07-29T11:59:03;23.73;62.68
74224;SHT31;62585;49.706;18.216;2022-07-29T12:01:33;24.44;61.47
74224;SHT31;62585;49.706;18.216;2022-07-29T12:04:18;24.93;61.44
74224;SHT31;62585;49.706;18.216;2022-07-29T12:06:53;25.28;61.42
74224;SHT31;62585;49.706;18.216;2022-07-29T12:09:20;25.54;60.77
74224;SHT31;62585;49.706;18.216;2022-07-29T12:11:56;25.75;58.60
74224;SHT31;62585;49.706;18.216;2022-07-29T12:14:33;26.01;58.26
74224;SHT31;62585;49.706;18.216;2022-07-29T12:17:03;26.25;56.37
74224;SHT31;62585;49.706;18.216;2022-07-29T12:19:42;26.44;56.63
74224;SHT31;62585;49.706;18.216;2022-07-29T12:22:09;26.64;55.23
74224;SHT31;62585;49.706;18.216;2022-07-29T12:24:44;26.81;55.49
74224;SHT31;62585;49.706;18.216;2022-07-29T12:27:10;26.95;53.97
74224;SHT31;62585;49.706;18.216;2022-07-29T12:29:37;26.91;56.61
74224;SHT31;62585;49.706;18.216;2022-07-29T12:32:03;26.99;54.85
74224;SHT31;62585;49.706;18.216;2022-07-29T12:34:32;26.94;54.57
74224;SHT31;62585;49.706;18.216;2022-07-29T12:37:01;26.97;55.28
74224;SHT31;62585;49.706;18.216;2022-07-29T12:39:27;26.95;54.58
74224;SHT31;62585;49.706;18.216;2022-07-29T12:41:53;26.98;55.11
74224;SHT31;62585;49.706;18.216;2022-07-29T12:44:19;26.94;55.47
74224;SHT31;62585;49.706;18.216;2022-07-29T12:47:11;26.91;56.45
74224;SHT31;62585;49.706;18.216;2022-07-29T12:49:37;26.92;55.02
74224;SHT31;62585;49.706;18.216;2022-07-29T12:52:34;26.92;54.71
74224;SHT31;62585;49.706;18.216;2022-07-29T12:55:02;26.92;55.96
74224;SHT31;62585;49.706;18.216;2022-07-29T12:57:30;26.88;54.98
74224;SHT31;62585;49.706;18.216;2022-07-29T13:00:09;26.91;54.63
74224;SHT31;62585;49.706;18.216;2022-07-29T13:02:37;26.84;54.31
74224;SHT31;62585;49.706;18.216;2022-07-29T13:05:05;26.81;54.53
74224;SHT31;62585;49.706;18.216;2022-07-29T13:07:33;26.77;54.80
74224;SHT31;62585;49.706;18.216;2022-07-29T13:10:14;26.71;55.15
74224;SHT31;62585;49.706;18.216;2022-07-29T13:13:06;26.64;56.24
74224;SHT31;62585;49.706;18.216;2022-07-29T13:15:35;26.61;56.60
74224;SHT31;62585;49.706;18.216;2022-07-29T13:18:02;26.60;56.31
74224;SHT31;62585;49.706;18.216;2022-07-29T13:20:28;26.47;55.82
74224;SHT31;62585;49.706;18.216;2022-07-29T13:22:59;26.51;54.81
74224;SHT31;62585;49.706;18.216;2022-07-29T13:25:28;26.50;55.60
74224;SHT31;62585;49.706;18.216;2022-07-29T13:27:54;26.49;56.43
74224;SHT31;62585;49.706;18.216;2022-07-29T13:30:21;26.51;55.61
74224;SHT31;62585;49.706;18.216;2022-07-29T13:32:47;26.47;56.38
74224;SHT31;62585;49.706;18.216;2022-07-29T13:35:14;26.49;56.49
74224;SHT31;62585;49.706;18.216;2022-07-29T13:37:40;26.49;55.42
74224;SHT31;62585;49.706;18.216;2022-07-29T13:40:07;26.53;55.09
74224;SHT31;62585;49.706;18.216;2022-07-29T13:42:42;26.53;56.37
74224;SHT31;62585;49.706;18.216;2022-07-29T13:45:09;26.51;56.47
74224;SHT31;62585;49.706;18.216;2022-07-29T13:47:36;26.54;56.09
74224;SHT31;62585;49.706;18.216;2022-07-29T13:50:04;26.47;55.54
74224;SHT31;62585;49.706;18.216;2022-07-29T13:52:30;26.50;55.62
74224;SHT31;62585;49.706;18.216;2022-07-29T13:54:56;26.51;56.83
74224;SHT31;62585;49.706;18.216;2022-07-29T13:57:22;26.56;56.89
74224;SHT31;62585;49.706;18.216;2022-07-29T13:59:48;26.47;58.24
74224;SHT31;62585;49.706;18.216;2022-07-29T14:02:16;26.51;56.78
74224;SHT31;62585;49.706;18.216;2022-07-29T14:04:43;26.53;57.15
74224;SHT31;62585;49.706;18.216;2022-07-29T14:07:09;26.53;59.05
74224;SHT31;62585;49.706;18.216;2022-07-29T14:19:51;26.88;52.17
74224;SHT31;62585;49.706;18.216;2022-07-29T14:22:17;26.99;52.11
74224;SHT31;62585;49.706;18.216;2022-07-29T14:24:44;27.12;51.89
74224;SHT31;62585;49.706;18.216;2022-07-29T14:27:11;27.29;50.61
74224;SHT31;62585;49.706;18.216;2022-07-29T14:29:37;27.26;52.08
74224;SHT31;62585;49.706;18.216;2022-07-29T14:32:07;27.32;51.94
74224;SHT31;62585;49.706;18.216;2022-07-29T14:34:35;27.36;52.35
74224;SHT31;62585;49.706;18.216;2022-07-29T14:37:01;27.54;51.71
74224;SHT31;62585;49.706;18.216;2022-07-29T14:39:28;27.69;49.71
74224;SHT31;62585;49.706;18.216;2022-07-29T14:41:54;27.56;48.91
74224;SHT31;62585;49.706;18.216;2022-07-29T14:44:20;27.50;48.73
74224;SHT31;62585;49.706;18.216;2022-07-29T14:46:46;27.52;48.12
74224;SHT31;62585;49.706;18.216;2022-07-29T14:49:12;27.50;48.31
74224;SHT31;62585;49.706;18.216;2022-07-29T14:51:38;27.45;48.38
74224;SHT31;62585;49.706;18.216;2022-07-29T14:54:04;27.52;48.04
74224;SHT31;62585;49.706;18.216;2022-07-29T14:56:29;27.42;49.50
74224;SHT31;62585;49.706;18.216;2022-07-29T14:58:56;27.47;48.79
74224;SHT31;62585;49.706;18.216;2022-07-29T15:01:23;27.59;48.00
74224;SHT31;62585;49.706;18.216;2022-07-29T15:03:50;27.76;46.46
74224;SHT31;62585;49.706;18.216;2022-07-29T15:06:16;27.91;47.38
74224;SHT31;62585;49.706;18.216;2022-07-29T15:08:41;28.04;47.54
74224;SHT31;62585;49.706;18.216;2022-07-29T15:11:08;28.25;47.09
74224;SHT31;62585;49.706;18.216;2022-07-29T15:13:34;28.31;46.97
74224;SHT31;62585;49.706;18.216;2022-07-29T15:16:00;28.31;45.94
74224;SHT31;62585;49.706;18.216;2022-07-29T15:18:26;28.29;46.23
74224;SHT31;62585;49.706;18.216;2022-07-29T15:20:52;28.25;47.79
74224;SHT31;62585;49.706;18.216;2022-07-29T15:23:17;28.10;49.30
74224;SHT31;62585;49.706;18.216;2022-07-29T15:25:43;27.91;47.96
74224;SHT31;62585;49.706;18.216;2022-07-29T15:28:09;27.77;49.60
74224;SHT31;62585;49.706;18.216;2022-07-29T15:30:35;27.47;51.53
74224;SHT31;62585;49.706;18.216;2022-07-29T15:33:07;27.39;52.16
74224;SHT31;62585;49.706;18.216;2022-07-29T15:35:35;27.11;53.13
74224;SHT31;62585;49.706;18.216;2022-07-29T15:38:01;26.88;54.39
74224;SHT31;62585;49.706;18.216;2022-07-29T15:40:27;26.81;54.60
74224;SHT31;62585;49.706;18.216;2022-07-29T15:42:53;26.63;54.83
74224;SHT31;62585;49.706;18.216;2022-07-29T15:45:18;26.59;54.60
74224;SHT31;62585;49.706;18.216;2022-07-29T15:47:44;26.46;54.49
74224;SHT31;62585;49.706;18.216;2022-07-29T15:50:10;26.33;55.48
74224;SHT31;62585;49.706;18.216;2022-07-29T15:52:40;26.26;56.08
74224;SHT31;62585;49.706;18.216;2022-07-29T15:55:06;26.28;55.96
74224;SHT31;62585;49.706;18.216;2022-07-29T15:57:33;26.23;55.29
74224;SHT31;62585;49.706;18.216;2022-07-29T15:59:59;26.11;56.71
74224;SHT31;62585;49.706;18.216;2022-07-29T16:02:25;25.92;56.88
74224;SHT31;62585;49.706;18.216;2022-07-29T16:04:50;25.72;57.45
74224;SHT31;62585;49.706;18.216;2022-07-29T16:07:17;25.55;57.65
74224;SHT31;62585;49.706;18.216;2022-07-29T16:09:43;25.48;58.16
74224;SHT31;62585;49.706;18.216;2022-07-29T16:12:09;25.53;59.38
74224;SHT31;62585;49.706;18.216;2022-07-29T16:14:35;25.44;58.92
74224;SHT31;62585;49.706;18.216;2022-07-29T16:17:01;25.33;59.32
74224;SHT31;62585;49.706;18.216;2022-07-29T16:19:29;25.28;59.07
74224;SHT31;62585;49.706;18.216;2022-07-29T16:21:55;25.15;60.14
74224;SHT31;62585;49.706;18.216;2022-07-29T16:24:20;25.17;60.50
74224;SHT31;62585;49.706;18.216;2022-07-29T16:26:46;25.10;61.07
74224;SHT31;62585;49.706;18.216;2022-07-29T16:29:12;25.10;61.18
74224;SHT31;62585;49.706;18.216;2022-07-29T16:31:38;25.05;60.19
74224;SHT31;62585;49.706;18.216;2022-07-29T16:34:04;24.88;61.56
74224;SHT31;62585;49.706;18.216;2022-07-29T16:36:30;24.73;61.31
74224;SHT31;62585;49.706;18.216;2022-07-29T16:38:56;24.72;62.39
74224;SHT31;62585;49.706;18.216;2022-07-29T16:41:21;24.68;61.99
74224;SHT31;62585;49.706;18.216;2022-07-29T16:43:47;24.72;62.32
74224;SHT31;62585;49.706;18.216;2022-07-29T16:46:13;24.69;62.23
74224;SHT31;62585;49.706;18.216;2022-07-29T16:48:39;24.69;62.63
74224;SHT31;62585;49.706;18.216;2022-07-29T16:51:05;24.75;62.22
74224;SHT31;62585;49.706;18.216;2022-07-29T16:53:31;24.80;61.88
74224;SHT31;62585;49.706;18.216;2022-07-29T16:55:57;24.88;62.08
74224;SHT31;62585;49.706;18.216;2022-07-29T16:58:23;24.80;62.55
74224;SHT31;62585;49.706;18.216;2022-07-29T17:00:49;24.75;62.49
74224;SHT31;62585;49.706;18.216;2022-07-29T17:03:15;24.65;62.79
74224;SHT31;62585;49.706;18.216;2022-07-29T17:05:40;24.54;62.73
74224;SHT31;62585;49.706;18.216;2022-07-29T17:08:06;24.50;62.57
74224;SHT31;62585;49.706;18.216;2022-07-29T17:10:32;24.41;62.74
74224;SHT31;62585;49.706;18.216;2022-07-29T17:12:58;24.35;62.73
74224;SHT31;62585;49.706;18.216;2022-07-29T17:15:24;24.32;62.92
74224;SHT31;62585;49.706;18.216;2022-07-29T17:17:50;24.25;62.53
74224;SHT31;62585;49.706;18.216;2022-07-29T17:20:16;24.23;62.07
74224;SHT31;62585;49.706;18.216;2022-07-29T17:22:42;24.25;62.01
74224;SHT31;62585;49.706;18.216;2022-07-29T17:25:08;24.31;58.77
74224;SHT31;62585;49.706;18.216;2022-07-29T17:27:35;24.40;56.19
74224;SHT31;62585;49.706;18.216;2022-07-29T17:30:01;24.37;55.87
74224;SHT31;62585;49.706;18.216;2022-07-29T17:32:27;24.31;55.33
74224;SHT31;62585;49.706;18.216;2022-07-29T17:34:53;24.25;53.65
74224;SHT31;62585;49.706;18.216;2022-07-29T17:37:19;24.24;52.28
74224;SHT31;62585;49.706;18.216;2022-07-29T17:39:45;24.24;52.18
74224;SHT31;62585;49.706;18.216;2022-07-29T17:42:12;24.20;53.53
74224;SHT31;62585;49.706;18.216;2022-07-29T17:44:39;24.09;53.86
74224;SHT31;62585;49.706;18.216;2022-07-29T17:47:05;24.06;52.25
74224;SHT31;62585;49.706;18.216;2022-07-29T17:49:31;24.06;52.88
74224;SHT31;62585;49.706;18.216;2022-07-29T17:51:57;24.06;53.59
74224;SHT31;62585;49.706;18.216;2022-07-29T17:54:23;23.93;53.56
74224;SHT31;62585;49.706;18.216;2022-07-29T17:56:49;23.77;53.89
74224;SHT31;62585;49.706;18.216;2022-07-29T17:59:15;23.77;53.92
74224;SHT31;62585;49.706;18.216;2022-07-29T18:01:41;23.67;54.47
74224;SHT31;62585;49.706;18.216;2022-07-29T18:04:08;23.66;55.00
74224;SHT31;62585;49.706;18.216;2022-07-29T18:06:34;23.48;55.38
74224;SHT31;62585;49.706;18.216;2022-07-29T18:09:00;23.46;56.31
74224;SHT31;62585;49.706;18.216;2022-07-29T18:11:25;23.32;57.66
74224;SHT31;62585;49.706;18.216;2022-07-29T18:13:52;23.21;57.96
74224;SHT31;62585;49.706;18.216;2022-07-29T18:16:18;23.27;57.90
74224;SHT31;62585;49.706;18.216;2022-07-29T18:18:44;23.11;58.67
74224;SHT31;62585;49.706;18.216;2022-07-29T18:21:10;23.04;59.06
74224;SHT31;62585;49.706;18.216;2022-07-29T18:23:36;23.06;59.24
74224;SHT31;62585;49.706;18.216;2022-07-29T18:26:02;22.96;60.26
74224;SHT31;62585;49.706;18.216;2022-07-29T18:28:27;22.91;60.51
74224;SHT31;62585;49.706;18.216;2022-07-29T18:30:53;22.86;60.99
74224;SHT31;62585;49.706;18.216;2022-07-29T18:33:19;22.73;61.88
74224;SHT31;62585;49.706;18.216;2022-07-29T18:35:46;22.61;62.78
74224;SHT31;62585;49.706;18.216;2022-07-29T18:38:13;22.60;63.74
74224;SHT31;62585;49.706;18.216;2022-07-29T18:40:39;22.43;64.84
74224;SHT31;62585;49.706;18.216;2022-07-29T18:43:10;22.32;65.23
74224;SHT31;62585;49.706;18.216;2022-07-29T18:45:37;22.35;65.20
74224;SHT31;62585;49.706;18.216;2022-07-29T18:48:04;22.28;65.28
74224;SHT31;62585;49.706;18.216;2022-07-29T18:50:31;22.25;66.50
74224;SHT31;62585;49.706;18.216;2022-07-29T18:52:57;22.15;66.75
74224;SHT31;62585;49.706;18.216;2022-07-29T18:55:24;22.08;66.18
74224;SHT31;62585;49.706;18.216;2022-07-29T18:57:50;22.06;66.41
74224;SHT31;62585;49.706;18.216;2022-07-29T19:00:16;22.08;67.53
74224;SHT31;62585;49.706;18.216;2022-07-29T19:02:42;22.02;67.11
74224;SHT31;62585;49.706;18.216;2022-07-29T19:05:08;21.98;66.24
74224;SHT31;62585;49.706;18.216;2022-07-29T19:07:35;21.97;68.78
74224;SHT31;62585;49.706;18.216;2022-07-29T19:10:01;21.91;70.19
74224;SHT31;62585;49.706;18.216;2022-07-29T19:12:27;21.77;70.89
74224;SHT31;62585;49.706;18.216;2022-07-29T19:14:53;21.75;71.53
74224;SHT31;62585;49.706;18.216;2022-07-29T19:17:19;21.78;71.63
74224;SHT31;62585;49.706;18.216;2022-07-29T19:19:45;21.81;71.68
74224;SHT31;62585;49.706;18.216;2022-07-29T19:22:11;21.77;72.07
74224;SHT31;62585;49.706;18.216;2022-07-29T19:24:39;21.71;71.76
74224;SHT31;62585;49.706;18.216;2022-07-29T19:27:04;21.57;72.62
74224;SHT31;62585;49.706;18.216;2022-07-29T19:29:30;21.50;73.80
74224;SHT31;62585;49.706;18.216;2022-07-29T19:31:57;21.43;73.96
74224;SHT31;62585;49.706;18.216;2022-07-29T19:34:25;21.35;74.74
74224;SHT31;62585;49.706;18.216;2022-07-29T19:36:52;21.26;75.03
74224;SHT31;62585;49.706;18.216;2022-07-29T19:39:17;21.29;75.04
74224;SHT31;62585;49.706;18.216;2022-07-29T19:41:43;21.15;76.10
74224;SHT31;62585;49.706;18.216;2022-07-29T19:44:09;21.09;76.48
74224;SHT31;62585;49.706;18.216;2022-07-29T19:46:36;21.20;76.38
74224;SHT31;62585;49.706;18.216;2022-07-29T19:49:02;21.08;76.45
74224;SHT31;62585;49.706;18.216;2022-07-29T19:51:31;20.92;77.49
74224;SHT31;62585;49.706;18.216;2022-07-29T19:53:57;21.02;76.63
74224;SHT31;62585;49.706;18.216;2022-07-29T19:56:23;20.81;76.52
74224;SHT31;62585;49.706;18.216;2022-07-29T19:58:54;20.75;76.77
74224;SHT31;62585;49.706;18.216;2022-07-29T20:01:21;20.72;76.79
74224;SHT31;62585;49.706;18.216;2022-07-29T20:03:47;20.79;76.47
74224;SHT31;62585;49.706;18.216;2022-07-29T20:06:13;20.71;76.93
74224;SHT31;62585;49.706;18.216;2022-07-29T20:08:39;20.74;76.63
74224;SHT31;62585;49.706;18.216;2022-07-29T20:11:05;20.71;76.77
74224;SHT31;62585;49.706;18.216;2022-07-29T20:13:31;20.71;77.05
74224;SHT31;62585;49.706;18.216;2022-07-29T20:15:58;20.64;77.66
74224;SHT31;62585;49.706;18.216;2022-07-29T20:18:25;20.61;77.71
74224;SHT31;62585;49.706;18.216;2022-07-29T20:20:51;20.70;77.46
74224;SHT31;62585;49.706;18.216;2022-07-29T20:23:21;20.77;77.09
74224;SHT31;62585;49.706;18.216;2022-07-29T20:25:48;20.72;77.75
74224;SHT31;62585;49.706;18.216;2022-07-29T20:28:14;20.81;77.32
74224;SHT31;62585;49.706;18.216;2022-07-29T20:30:40;20.78;77.45
74224;SHT31;62585;49.706;18.216;2022-07-29T20:33:06;20.75;77.75
74224;SHT31;62585;49.706;18.216;2022-07-29T20:35:32;20.68;78.52
74224;SHT31;62585;49.706;18.216;2022-07-29T20:37:58;20.68;78.01
74224;SHT31;62585;49.706;18.216;2022-07-29T20:40:25;20.65;78.52
74224;SHT31;62585;49.706;18.216;2022-07-29T20:42:53;20.70;77.84
74224;SHT31;62585;49.706;18.216;2022-07-29T20:45:20;20.63;78.41
74224;SHT31;62585;49.706;18.216;2022-07-29T20:47:48;20.74;77.86
74224;SHT31;62585;49.706;18.216;2022-07-29T20:50:15;20.70;77.99
74224;SHT31;62585;49.706;18.216;2022-07-29T20:52:41;20.68;78.08
74224;SHT31;62585;49.706;18.216;2022-07-29T20:55:09;20.71;78.03
74224;SHT31;62585;49.706;18.216;2022-07-29T20:57:35;20.60;78.16
74224;SHT31;62585;49.706;18.216;2022-07-29T21:00:01;20.60;77.90
74224;SHT31;62585;49.706;18.216;2022-07-29T21:02:27;20.54;77.77
74224;SHT31;62585;49.706;18.216;2022-07-29T21:04:53;20.52;78.11
74224;SHT31;62585;49.706;18.216;2022-07-29T21:07:18;20.48;77.04
74224;SHT31;62585;49.706;18.216;2022-07-29T21:09:44;20.50;76.93
74224;SHT31;62585;49.706;18.216;2022-07-29T21:12:10;20.47;76.30
74224;SHT31;62585;49.706;18.216;2022-07-29T21:14:38;20.43;76.75
74224;SHT31;62585;49.706;18.216;2022-07-29T21:17:03;20.44;76.33
74224;SHT31;62585;49.706;18.216;2022-07-29T21:19:33;20.50;75.98
74224;SHT31;62585;49.706;18.216;2022-07-29T21:21:59;20.41;76.30
74224;SHT31;62585;49.706;18.216;2022-07-29T21:24:25;20.34;76.66
74224;SHT31;62585;49.706;18.216;2022-07-29T21:26:51;20.39;76.71
74224;SHT31;62585;49.706;18.216;2022-07-29T21:29:17;20.45;76.49
74224;SHT31;62585;49.706;18.216;2022-07-29T21:31:43;20.43;76.65
74224;SHT31;62585;49.706;18.216;2022-07-29T21:34:09;20.43;76.89
74224;SHT31;62585;49.706;18.216;2022-07-29T21:36:35;20.37;76.26
74224;SHT31;62585;49.706;18.216;2022-07-29T21:39:01;20.48;75.35
74224;SHT31;62585;49.706;18.216;2022-07-29T21:41:32;20.51;74.79
74224;SHT31;62585;49.706;18.216;2022-07-29T21:43:58;20.60;74.63
74224;SHT31;62585;49.706;18.216;2022-07-29T21:46:24;20.54;74.50
74224;SHT31;62585;49.706;18.216;2022-07-29T21:48:50;20.57;74.19
74224;SHT31;62585;49.706;18.216;2022-07-29T21:51:16;20.44;74.70
74224;SHT31;62585;49.706;18.216;2022-07-29T21:53:42;20.45;74.36
74224;SHT31;62585;49.706;18.216;2022-07-29T21:56:08;20.40;74.59
74224;SHT31;62585;49.706;18.216;2022-07-29T21:58:33;20.37;74.90
74224;SHT31;62585;49.706;18.216;2022-07-29T22:00:59;20.39;74.69
74224;SHT31;62585;49.706;18.216;2022-07-29T22:03:25;20.47;74.60
74224;SHT31;62585;49.706;18.216;2022-07-29T22:05:51;20.44;74.56
74224;SHT31;62585;49.706;18.216;2022-07-29T22:08:17;20.33;75.08
74224;SHT31;62585;49.706;18.216;2022-07-29T22:10:43;20.39;74.52
74224;SHT31;62585;49.706;18.216;2022-07-29T22:13:08;20.32;74.82
74224;SHT31;62585;49.706;18.216;2022-07-29T22:15:34;20.26;75.04
74224;SHT31;62585;49.706;18.216;2022-07-29T22:18:00;20.32;74.76
74224;SHT31;62585;49.706;18.216;2022-07-29T22:20:26;20.26;74.97
74224;SHT31;62585;49.706;18.216;2022-07-29T22:22:52;20.12;75.58
74224;SHT31;62585;49.706;18.216;2022-07-29T22:25:19;20.08;75.82
74224;SHT31;62585;49.706;18.216;2022-07-29T22:27:45;20.12;75.71
74224;SHT31;62585;49.706;18.216;2022-07-29T22:30:11;20.06;76.04
74224;SHT31;62585;49.706;18.216;2022-07-29T22:32:37;20.00;76.45
74224;SHT31;62585;49.706;18.216;2022-07-29T22:35:03;19.95;76.61
74224;SHT31;62585;49.706;18.216;2022-07-29T22:37:29;19.95;77.29
74224;SHT31;62585;49.706;18.216;2022-07-29T22:39:55;19.85;77.65
74224;SHT31;62585;49.706;18.216;2022-07-29T22:42:21;19.86;77.93
74224;SHT31;62585;49.706;18.216;2022-07-29T22:44:46;19.85;77.48
74224;SHT31;62585;49.706;18.216;2022-07-29T22:47:12;19.78;77.57
74224;SHT31;62585;49.706;18.216;2022-07-29T22:49:38;19.83;77.49
74224;SHT31;62585;49.706;18.216;2022-07-29T22:52:04;19.83;77.41
74224;SHT31;62585;49.706;18.216;2022-07-29T22:54:30;19.93;77.02
74224;SHT31;62585;49.706;18.216;2022-07-29T22:56:56;19.92;76.79
74224;SHT31;62585;49.706;18.216;2022-07-29T22:59:21;19.95;77.10
74224;SHT31;62585;49.706;18.216;2022-07-29T23:01:47;19.92;77.35
74224;SHT31;62585;49.706;18.216;2022-07-29T23:04:13;19.93;77.95
74224;SHT31;62585;49.706;18.216;2022-07-29T23:06:39;19.89;77.65
74224;SHT31;62585;49.706;18.216;2022-07-29T23:09:05;19.92;77.79
74224;SHT31;62585;49.706;18.216;2022-07-29T23:11:31;19.89;77.86
74224;SHT31;62585;49.706;18.216;2022-07-29T23:13:56;19.93;77.98
74224;SHT31;62585;49.706;18.216;2022-07-29T23:16:23;19.89;78.39
74224;SHT31;62585;49.706;18.216;2022-07-29T23:18:48;19.92;78.47
74224;SHT31;62585;49.706;18.216;2022-07-29T23:21:14;19.83;78.68
74224;SHT31;62585;49.706;18.216;2022-07-29T23:23:40;19.86;79.19
74224;SHT31;62585;49.706;18.216;2022-07-29T23:26:06;19.87;79.32
74224;SHT31;62585;49.706;18.216;2022-07-29T23:28:32;19.85;79.91
74224;SHT31;62585;49.706;18.216;2022-07-29T23:30:58;19.85;80.62
74224;SHT31;62585;49.706;18.216;2022-07-29T23:33:23;19.72;82.44
74224;SHT31;62585;49.706;18.216;2022-07-29T23:35:49;19.51;84.49
74224;SHT31;62585;49.706;18.216;2022-07-29T23:38:15;19.38;85.30
74224;SHT31;62585;49.706;18.216;2022-07-29T23:40:41;19.26;86.06
74224;SHT31;62585;49.706;18.216;2022-07-29T23:43:07;19.11;86.70
74224;SHT31;62585;49.706;18.216;2022-07-29T23:45:33;19.03;87.25
74224;SHT31;62585;49.706;18.216;2022-07-29T23:47:59;19.10;87.06
74224;SHT31;62585;49.706;18.216;2022-07-29T23:50:24;19.00;87.71
74224;SHT31;62585;49.706;18.216;2022-07-29T23:52:50;18.97;88.00
74224;SHT31;62585;49.706;18.216;2022-07-29T23:55:16;18.93;88.16
74224;SHT31;62585;49.706;18.216;2022-07-29T23:57:42;18.93;88.16
